Time;durP1;ratioP1;P1;durP2;ratioP2;P2;SDS_P1;SDS_P2;PMS_P1;PMS_P2;Temp;Humidity;BMP_temperature;BMP_pressure;BME280_temperature;BME280_humidity;BME280_pressure;Samples;Min_cycle;Max_cycle;Signal;HPM_P1;HPM_P2
2021/01/17 00:00:04;;;;;;;25.97;18.57;;;;;;;;;;2089961;28;20648;-54
2021/01/17 00:01:12;;;;;;;28.07;19.70;;;;;;;;;;2085477;28;20581;-56
2021/01/17 00:02:12;;;;;;;27.90;19.67;;;;;;;;;;2086261;28;20412;-58
2021/01/17 00:03:13;;;;;;;27.73;20.27;;;;;;;;;;2085568;28;20219;-57
2021/01/17 00:04:13;;;;;;;27.53;19.63;;;;;;;;;;2086200;28;20172;-54
2021/01/17 00:05:14;;;;;;;24.07;19.33;;;;;;;;;;2085644;28;20207;-57
2021/01/17 00:06:15;;;;;;;29.03;20.30;;;;;;;;;;2086174;28;20171;-53
2021/01/17 00:07:15;;;;;;;25.87;18.97;;;;;;;;;;2080364;28;20453;-54
2021/01/17 00:08:17;;;;;;;25.63;19.53;;;;;;;;;;2078748;28;20629;-57
2021/01/17 00:09:17;;;;;;;28.00;18.77;;;;;;;;;;2088980;28;20184;-58
2021/01/17 00:10:20;;;;;;;28.17;20.00;;;;;;;;;;2080814;28;20409;-56
2021/01/17 00:11:21;;;;;;;22.13;17.03;;;;;;;;;;2080961;28;20559;-55
2021/01/17 00:12:21;;;;;;;24.90;18.73;;;;;;;;;;2072796;28;20443;-57
2021/01/17 00:13:23;;;;;;;25.93;19.43;;;;;;;;;;2073805;28;20196;-58
2021/01/17 00:14:23;;;;;;;26.40;19.23;;;;;;;;;;2083990;28;20199;-54
2021/01/17 00:15:24;;;;;;;24.23;18.20;;;;;;;;;;2087567;28;20408;-55
2021/01/17 00:16:24;;;;;;;25.70;18.27;;;;;;;;;;2083055;28;20191;-56
2021/01/17 00:17:24;;;;;;;25.43;18.00;;;;;;;;;;2087340;28;20179;-53
2021/01/17 00:18:24;;;;;;;27.17;19.03;;;;;;;;;;2083868;28;20184;-54
2021/01/17 00:19:25;;;;;;;23.40;17.80;;;;;;;;;;2083900;28;20265;-58
2021/01/17 00:20:25;;;;;;;26.37;17.83;;;;;;;;;;2080325;28;20629;-57
2021/01/17 00:21:26;;;;;;;23.33;17.17;;;;;;;;;;2076345;28;20203;-54
2021/01/17 00:22:26;;;;;;;23.27;17.17;;;;;;;;;;2075816;28;20269;-58
2021/01/17 00:23:26;;;;;;;22.83;17.17;;;;;;;;;;2080218;28;20180;-57
2021/01/17 00:24:26;;;;;;;23.30;16.77;;;;;;;;;;2080079;28;20358;-54
2021/01/17 00:25:27;;;;;;;22.63;17.60;;;;;;;;;;2082602;28;20203;-55
2021/01/17 00:26:33;;;;;;;37.10;25.97;;;;;;;;;;2084689;28;20176;-57
2021/01/17 00:27:34;;;;;;;25.87;18.77;;;;;;;;;;2089505;28;20174;-56
2021/01/17 00:28:35;;;;;;;33.77;22.70;;;;;;;;;;2087095;28;20975;-54
2021/01/17 00:29:35;;;;;;;28.33;19.97;;;;;;;;;;2083301;28;20164;-56
2021/01/17 00:30:35;;;;;;;27.47;19.83;;;;;;;;;;2090218;28;20172;-56
2021/01/17 00:31:36;;;;;;;22.83;17.83;;;;;;;;;;2084029;28;20199;-52
2021/01/17 00:32:36;;;;;;;26.57;19.07;;;;;;;;;;2085924;28;20188;-55
2021/01/17 00:33:36;;;;;;;25.07;19.27;;;;;;;;;;2090007;28;20246;-58
2021/01/17 00:34:37;;;;;;;22.90;18.23;;;;;;;;;;2082828;28;20261;-55
2021/01/17 00:35:37;;;;;;;23.53;16.90;;;;;;;;;;2087680;28;20206;-52
2021/01/17 00:36:38;;;;;;;21.27;16.57;;;;;;;;;;2090812;28;20195;-53
2021/01/17 00:37:38;;;;;;;22.57;17.60;;;;;;;;;;2084891;28;20176;-54
2021/01/17 00:38:39;;;;;;;21.17;16.60;;;;;;;;;;2088787;28;20546;-57
2021/01/17 00:39:39;;;;;;;19.43;16.03;;;;;;;;;;2085253;28;20177;-54
2021/01/17 00:40:39;;;;;;;19.40;15.03;;;;;;;;;;2090166;28;20273;-52
2021/01/17 00:41:39;;;;;;;20.50;15.80;;;;;;;;;;2088553;28;20245;-54
2021/01/17 00:42:43;;;;;;;20.70;15.60;;;;;;;;;;2090605;28;20184;-59
2021/01/17 00:43:44;;;;;;;19.50;15.83;;;;;;;;;;2078764;28;20190;-55
2021/01/17 00:44:44;;;;;;;20.70;14.93;;;;;;;;;;2074192;28;20418;-53
2021/01/17 00:45:44;;;;;;;19.87;16.23;;;;;;;;;;2079307;28;20234;-55
2021/01/17 00:46:44;;;;;;;18.43;14.60;;;;;;;;;;2090042;28;20175;-55
2021/01/17 00:47:45;;;;;;;22.03;16.10;;;;;;;;;;2078514;28;20199;-57
2021/01/17 00:48:46;;;;;;;21.47;15.40;;;;;;;;;;2080378;28;20186;-56
2021/01/17 00:49:46;;;;;;;20.00;15.83;;;;;;;;;;2083542;28;20483;-58
2021/01/17 00:50:51;;;;;;;20.00;15.87;;;;;;;;;;2081891;28;20601;-54
2021/01/17 00:51:52;;;;;;;18.40;15.30;;;;;;;;;;2074856;28;20418;-57
2021/01/17 00:52:53;;;;;;;20.10;15.27;;;;;;;;;;2081157;28;20255;-55
2021/01/17 00:53:55;;;;;;;19.23;14.93;;;;;;;;;;2081753;28;20185;-54
2021/01/17 00:54:56;;;;;;;18.10;15.13;;;;;;;;;;2071466;28;20493;-58
2021/01/17 00:55:58;;;;;;;19.27;15.33;;;;;;;;;;2074149;28;20191;-55
2021/01/17 00:57:04;;;;;;;19.40;15.47;;;;;;;;;;2081671;28;20796;-54
2021/01/17 00:58:05;;;;;;;18.37;14.83;;;;;;;;;;2081743;28;20175;-56
2021/01/17 00:59:09;;;;;;;19.87;15.53;;;;;;;;;;2071686;28;20887;-53
2021/01/17 01:00:10;;;;;;;20.03;16.23;;;;;;;;;;2071948;28;20410;-54
2021/01/17 01:01:22;;;;;;;18.03;15.03;;;;;;;;;;2075224;28;20407;-55
2021/01/17 01:02:22;;;;;;;20.40;15.00;;;;;;;;;;2079698;28;20965;-57
2021/01/17 01:03:22;;;;;;;21.47;15.60;;;;;;;;;;2088595;28;20268;-56
2021/01/17 01:04:23;;;;;;;20.43;14.90;;;;;;;;;;2085198;28;20554;-55
2021/01/17 01:05:24;;;;;;;21.10;15.37;;;;;;;;;;2087842;28;20174;-55
2021/01/17 01:06:24;;;;;;;21.97;16.13;;;;;;;;;;2089809;28;20628;-57
2021/01/17 01:07:28;;;;;;;19.50;15.03;;;;;;;;;;2084744;28;20421;-54
2021/01/17 01:08:28;;;;;;;20.63;15.30;;;;;;;;;;2079403;28;20181;-58
2021/01/17 01:09:28;;;;;;;20.23;15.50;;;;;;;;;;2075259;28;20410;-57
2021/01/17 01:10:28;;;;;;;19.67;15.00;;;;;;;;;;2089228;28;20183;-55
2021/01/17 01:11:29;;;;;;;21.23;17.27;;;;;;;;;;2084245;28;20168;-58
2021/01/17 01:12:29;;;;;;;20.60;15.70;;;;;;;;;;2091078;28;20182;-55
2021/01/17 01:13:29;;;;;;;20.20;15.70;;;;;;;;;;2088090;28;20190;-57
2021/01/17 01:14:29;;;;;;;22.57;16.00;;;;;;;;;;2088008;28;20184;-55
2021/01/17 01:15:30;;;;;;;21.53;16.17;;;;;;;;;;2089372;28;20612;-53
2021/01/17 01:16:30;;;;;;;21.17;16.10;;;;;;;;;;2084591;28;20652;-55
2021/01/17 01:17:31;;;;;;;22.97;16.93;;;;;;;;;;2089842;28;20802;-57
2021/01/17 01:18:31;;;;;;;22.80;16.93;;;;;;;;;;2088895;28;20194;-56
2021/01/17 01:19:31;;;;;;;21.77;15.73;;;;;;;;;;2083760;28;20204;-53
2021/01/17 01:20:31;;;;;;;19.67;15.60;;;;;;;;;;2087504;28;20192;-55
2021/01/17 01:21:33;;;;;;;20.27;15.57;;;;;;;;;;2090008;28;20186;-55
2021/01/17 01:22:33;;;;;;;21.07;16.63;;;;;;;;;;2074364;28;20265;-57
2021/01/17 01:23:33;;;;;;;20.27;15.43;;;;;;;;;;2074843;28;20930;-57
2021/01/17 01:24:34;;;;;;;21.10;15.80;;;;;;;;;;2086407;28;20255;-58
2021/01/17 01:25:34;;;;;;;22.70;16.43;;;;;;;;;;2089488;28;20184;-53
2021/01/17 01:26:35;;;;;;;22.30;16.57;;;;;;;;;;2082947;28;20169;-54
2021/01/17 01:27:36;;;;;;;24.03;17.10;;;;;;;;;;2081535;28;20180;-56
2021/01/17 01:28:36;;;;;;;22.07;15.47;;;;;;;;;;2079533;28;20499;-57
2021/01/17 01:29:36;;;;;;;23.37;14.53;;;;;;;;;;2083109;28;20179;-58
2021/01/17 01:30:36;;;;;;;18.40;15.13;;;;;;;;;;2083986;28;20180;-54
2021/01/17 01:31:37;;;;;;;21.00;16.37;;;;;;;;;;2073716;28;20883;-51
2021/01/17 01:32:37;;;;;;;19.50;15.50;;;;;;;;;;2080567;28;20187;-57
2021/01/17 01:33:38;;;;;;;21.40;15.63;;;;;;;;;;2083235;28;20203;-56
2021/01/17 01:34:38;;;;;;;20.60;15.57;;;;;;;;;;2080972;28;20168;-54
2021/01/17 01:35:38;;;;;;;20.97;15.50;;;;;;;;;;2073473;28;20212;-55
2021/01/17 01:36:39;;;;;;;21.87;16.63;;;;;;;;;;2084656;28;20172;-56
2021/01/17 01:37:39;;;;;;;19.70;16.17;;;;;;;;;;2090157;28;20190;-57
2021/01/17 01:38:40;;;;;;;21.20;16.57;;;;;;;;;;2087762;28;20207;-57
2021/01/17 01:39:41;;;;;;;24.27;16.63;;;;;;;;;;2073751;28;20188;-54
2021/01/17 01:40:51;;;;;;;23.00;16.60;;;;;;;;;;2081618;28;20200;-56
2021/01/17 01:41:51;;;;;;;22.40;16.43;;;;;;;;;;2088391;28;20180;-58
2021/01/17 01:42:51;;;;;;;22.37;16.80;;;;;;;;;;2090281;28;20412;-56
2021/01/17 01:43:51;;;;;;;20.30;15.97;;;;;;;;;;2089195;28;20560;-53
2021/01/17 01:44:52;;;;;;;21.10;16.10;;;;;;;;;;2090856;28;20254;-54
2021/01/17 01:45:52;;;;;;;21.40;16.27;;;;;;;;;;2089660;28;20258;-54
2021/01/17 01:46:55;;;;;;;20.53;16.27;;;;;;;;;;2088430;28;20160;-52
2021/01/17 01:47:55;;;;;;;22.63;17.10;;;;;;;;;;2087834;28;20195;-58
2021/01/17 01:48:57;;;;;;;21.93;17.07;;;;;;;;;;2090208;28;20416;-53
2021/01/17 01:49:58;;;;;;;21.30;16.93;;;;;;;;;;2090081;28;20211;-58
2021/01/17 01:51:01;;;;;;;23.27;17.00;;;;;;;;;;2089574;28;20513;-56
2021/01/17 01:52:01;;;;;;;21.63;17.00;;;;;;;;;;2089731;28;20862;-58
2021/01/17 01:53:01;;;;;;;21.37;16.23;;;;;;;;;;2088068;28;20440;-57
2021/01/17 01:54:02;;;;;;;22.90;15.87;;;;;;;;;;2082959;28;20180;-58
2021/01/17 01:55:03;;;;;;;20.60;16.77;;;;;;;;;;2085542;28;20222;-58
2021/01/17 01:56:03;;;;;;;20.83;16.00;;;;;;;;;;2089812;28;20178;-55
2021/01/17 01:57:04;;;;;;;21.87;16.73;;;;;;;;;;2087095;28;20177;-56
2021/01/17 01:58:06;;;;;;;20.33;15.67;;;;;;;;;;2074439;28;20192;-53
2021/01/17 01:59:06;;;;;;;20.70;16.07;;;;;;;;;;2069482;28;20177;-57
2021/01/17 02:00:07;;;;;;;23.30;17.17;;;;;;;;;;2079470;28;20913;-57
2021/01/17 02:01:13;;;;;;;20.77;15.33;;;;;;;;;;2089891;28;20198;-58
2021/01/17 02:02:14;;;;;;;17.87;15.67;;;;;;;;;;2085197;28;20778;-61
2021/01/17 02:03:14;;;;;;;21.83;16.10;;;;;;;;;;2085293;28;20192;-59
2021/01/17 02:04:14;;;;;;;22.53;16.77;;;;;;;;;;2090998;28;20172;-57
2021/01/17 02:05:15;;;;;;;20.60;15.83;;;;;;;;;;2091319;28;20701;-56
2021/01/17 02:06:19;;;;;;;22.13;16.40;;;;;;;;;;2090996;28;20211;-58
2021/01/17 02:07:42;;;;;;;22.63;17.40;;;;;;;;;;2089385;28;20180;-59
2021/01/17 02:08:43;;;;;;;22.37;16.87;;;;;;;;;;2088449;28;20421;-58
2021/01/17 02:09:43;;;;;;;23.53;18.10;;;;;;;;;;2090887;28;20941;-58
2021/01/17 02:10:44;;;;;;;24.37;17.93;;;;;;;;;;2090688;28;20271;-59
2021/01/17 02:11:51;;;;;;;33.87;23.13;;;;;;;;;;2090896;28;20216;-59
2021/01/17 02:12:53;;;;;;;26.47;19.00;;;;;;;;;;2081778;28;20194;-58
2021/01/17 02:14:00;;;;;;;29.50;20.57;;;;;;;;;;2074919;28;20452;-60
2021/01/17 02:15:08;;;;;;;26.93;19.63;;;;;;;;;;2082588;28;20409;-54
2021/01/17 02:16:08;;;;;;;22.13;17.80;;;;;;;;;;2082386;28;20455;-53
2021/01/17 02:17:11;;;;;;;22.27;17.07;;;;;;;;;;2081956;28;20429;-58
2021/01/17 02:18:12;;;;;;;22.10;16.67;;;;;;;;;;2088916;28;20176;-56
2021/01/17 02:19:13;;;;;;;24.30;16.03;;;;;;;;;;2081737;28;20449;-58
2021/01/17 02:20:16;;;;;;;24.87;17.80;;;;;;;;;;2073790;28;20240;-54
2021/01/17 02:21:16;;;;;;;21.33;16.97;;;;;;;;;;2081665;28;20483;-54
2021/01/17 02:22:17;;;;;;;23.20;16.57;;;;;;;;;;2089776;28;20832;-55
2021/01/17 02:23:27;;;;;;;23.77;16.93;;;;;;;;;;2087371;28;20176;-53
2021/01/17 02:24:48;;;;;;;22.97;17.43;;;;;;;;;;2090554;28;20496;-55
2021/01/17 02:25:48;;;;;;;25.67;17.13;;;;;;;;;;2082882;28;20425;-54
2021/01/17 02:26:49;;;;;;;22.47;17.43;;;;;;;;;;2090559;28;20909;-53
2021/01/17 02:27:49;;;;;;;23.60;16.97;;;;;;;;;;2089590;28;20261;-54
2021/01/17 02:28:49;;;;;;;21.93;16.47;;;;;;;;;;2089090;28;20167;-55
2021/01/17 02:29:50;;;;;;;22.57;16.37;;;;;;;;;;2090319;28;20225;-53
2021/01/17 02:30:52;;;;;;;23.80;17.33;;;;;;;;;;2080824;28;20234;-52
2021/01/17 02:31:53;;;;;;;20.63;16.77;;;;;;;;;;2073140;28;20224;-54
2021/01/17 02:32:55;;;;;;;21.70;16.70;;;;;;;;;;2080675;28;20409;-57
2021/01/17 02:33:55;;;;;;;24.17;17.63;;;;;;;;;;2089804;28;20424;-53
2021/01/17 02:34:55;;;;;;;23.20;19.10;;;;;;;;;;2090590;28;20404;-55
2021/01/17 02:36:00;;;;;;;25.23;17.97;;;;;;;;;;2090686;28;20167;-58
2021/01/17 02:37:07;;;;;;;21.97;17.47;;;;;;;;;;2089877;28;20171;-54
2021/01/17 02:38:26;;;;;;;24.00;16.77;;;;;;;;;;2089304;28;20409;-54
2021/01/17 02:39:48;;;;;;;21.77;17.17;;;;;;;;;;2081892;28;20492;-53
2021/01/17 02:41:00;;;;;;;23.20;17.17;;;;;;;;;;2082923;28;20437;-58
2021/01/17 02:42:02;;;;;;;21.73;16.23;;;;;;;;;;2082876;28;20467;-54
2021/01/17 02:43:02;;;;;;;22.03;16.17;;;;;;;;;;2074088;28;20486;-55
2021/01/17 02:44:04;;;;;;;19.83;16.67;;;;;;;;;;2065601;28;20993;-58
2021/01/17 02:45:05;;;;;;;23.17;17.30;;;;;;;;;;2074867;28;20267;-57
2021/01/17 02:46:05;;;;;;;23.13;17.40;;;;;;;;;;2081538;28;20819;-54
2021/01/17 02:47:05;;;;;;;19.90;16.40;;;;;;;;;;2081032;28;20322;-56
2021/01/17 02:48:06;;;;;;;22.27;17.13;;;;;;;;;;2090399;28;20211;-57
2021/01/17 02:49:06;;;;;;;21.03;16.33;;;;;;;;;;2081371;28;20205;-54
2021/01/17 02:50:08;;;;;;;24.17;17.87;;;;;;;;;;2078599;28;20732;-58
2021/01/17 02:51:08;;;;;;;20.87;16.77;;;;;;;;;;2080773;28;20218;-54
2021/01/17 02:52:09;;;;;;;22.43;16.83;;;;;;;;;;2081468;28;20405;-57
2021/01/17 02:53:28;;;;;;;23.60;16.73;;;;;;;;;;2090479;28;20172;-53
2021/01/17 02:54:33;;;;;;;23.70;17.30;;;;;;;;;;2088667;28;20435;-55
2021/01/17 02:55:35;;;;;;;23.50;17.53;;;;;;;;;;2081479;28;20492;-57
2021/01/17 02:56:39;;;;;;;23.07;17.80;;;;;;;;;;2081557;28;20456;-54
2021/01/17 02:57:39;;;;;;;24.47;18.37;;;;;;;;;;2089676;28;20446;-59
2021/01/17 02:58:40;;;;;;;24.30;17.57;;;;;;;;;;2089846;28;20832;-57
2021/01/17 02:59:49;;;;;;;22.73;17.47;;;;;;;;;;2081389;28;20172;-55
2021/01/17 03:00:51;;;;;;;24.17;17.53;;;;;;;;;;2082581;28;20282;-51
2021/01/17 03:01:52;;;;;;;24.20;17.93;;;;;;;;;;2090501;28;20420;-57
2021/01/17 03:02:56;;;;;;;25.40;18.17;;;;;;;;;;2072849;28;20454;-54
2021/01/17 03:04:16;;;;;;;23.33;17.43;;;;;;;;;;2073831;28;20449;-55
2021/01/17 03:05:20;;;;;;;22.47;17.10;;;;;;;;;;2040795;29;20830;-56
2021/01/17 03:06:23;;;;;;;23.47;17.70;;;;;;;;;;2074946;28;20436;-53
2021/01/17 03:07:23;;;;;;;22.93;17.20;;;;;;;;;;2074187;28;20449;-51
2021/01/17 03:08:23;;;;;;;25.00;18.00;;;;;;;;;;2071710;28;20422;-54
2021/01/17 03:09:27;;;;;;;23.77;17.53;;;;;;;;;;2080976;28;20255;-55
2021/01/17 03:10:29;;;;;;;22.90;17.57;;;;;;;;;;2090183;28;20384;-58
2021/01/17 03:11:29;;;;;;;22.47;17.83;;;;;;;;;;2090298;28;20939;-57
2021/01/17 03:12:29;;;;;;;25.53;17.80;;;;;;;;;;2081215;28;20456;-57
2021/01/17 03:13:29;;;;;;;22.30;17.53;;;;;;;;;;2081045;28;20171;-54
2021/01/17 03:14:31;;;;;;;24.33;18.13;;;;;;;;;;2081151;28;20177;-57
2021/01/17 03:15:32;;;;;;;22.90;17.77;;;;;;;;;;2081230;28;20168;-55
2021/01/17 03:16:33;;;;;;;23.10;18.07;;;;;;;;;;2089400;28;20412;-57
2021/01/17 03:17:34;;;;;;;26.33;20.63;;;;;;;;;;2085123;28;20488;-58
2021/01/17 03:18:34;;;;;;;24.73;18.33;;;;;;;;;;2081345;28;20409;-53
2021/01/17 03:19:34;;;;;;;23.80;18.23;;;;;;;;;;2080619;28;20523;-60
2021/01/17 03:20:35;;;;;;;23.93;17.33;;;;;;;;;;2086847;28;20198;-56
2021/01/17 03:21:35;;;;;;;22.93;17.43;;;;;;;;;;2081783;28;20267;-57
2021/01/17 03:22:35;;;;;;;25.10;17.83;;;;;;;;;;2089000;28;20180;-54
2021/01/17 03:23:35;;;;;;;25.90;18.43;;;;;;;;;;2075327;28;20243;-57
2021/01/17 03:24:36;;;;;;;26.27;18.87;;;;;;;;;;2080447;28;20172;-56
2021/01/17 03:25:36;;;;;;;27.97;19.33;;;;;;;;;;2074262;28;20579;-56
2021/01/17 03:26:36;;;;;;;25.47;19.23;;;;;;;;;;2073617;28;20169;-58
2021/01/17 03:27:37;;;;;;;25.37;19.07;;;;;;;;;;2081739;28;20184;-57
2021/01/17 03:28:37;;;;;;;25.60;19.67;;;;;;;;;;2081071;28;20219;-58
2021/01/17 03:29:37;;;;;;;28.17;19.93;;;;;;;;;;2074159;28;20180;-54
2021/01/17 03:30:37;;;;;;;27.30;19.67;;;;;;;;;;2089462;28;20199;-52
2021/01/17 03:31:37;;;;;;;29.47;21.40;;;;;;;;;;2082281;28;20706;-57
2021/01/17 03:32:38;;;;;;;25.77;18.20;;;;;;;;;;2089793;28;20646;-57
2021/01/17 03:33:38;;;;;;;27.73;19.97;;;;;;;;;;2082710;28;20172;-57
2021/01/17 03:34:38;;;;;;;27.50;19.63;;;;;;;;;;2082257;28;20842;-58
2021/01/17 03:35:38;;;;;;;26.17;18.53;;;;;;;;;;2090114;28;20165;-54
2021/01/17 03:36:39;;;;;;;28.10;19.03;;;;;;;;;;2090318;28;20172;-57
2021/01/17 03:37:39;;;;;;;27.83;19.77;;;;;;;;;;2080676;28;20168;-55
2021/01/17 03:38:39;;;;;;;25.57;18.83;;;;;;;;;;2081566;28;20622;-59
2021/01/17 03:39:39;;;;;;;27.80;19.57;;;;;;;;;;2072750;28;20200;-60
2021/01/17 03:40:40;;;;;;;26.63;19.80;;;;;;;;;;2073129;28;20169;-55
2021/01/17 03:41:40;;;;;;;25.13;19.13;;;;;;;;;;2072934;28;20204;-55
2021/01/17 03:42:41;;;;;;;28.87;19.80;;;;;;;;;;2076285;28;20176;-55
2021/01/17 03:43:41;;;;;;;25.57;19.47;;;;;;;;;;2080843;28;20192;-57
2021/01/17 03:44:42;;;;;;;26.10;19.63;;;;;;;;;;2072905;28;20257;-57
2021/01/17 03:45:42;;;;;;;25.80;19.37;;;;;;;;;;2081305;28;20188;-57
2021/01/17 03:46:42;;;;;;;26.17;18.77;;;;;;;;;;2087677;28;20207;-58
2021/01/17 03:47:42;;;;;;;29.43;19.93;;;;;;;;;;2081526;28;20173;-57
2021/01/17 03:48:43;;;;;;;27.77;20.00;;;;;;;;;;2083994;28;20184;-57
2021/01/17 03:49:43;;;;;;;27.97;19.53;;;;;;;;;;2089926;28;20176;-52
2021/01/17 03:50:43;;;;;;;26.87;20.37;;;;;;;;;;2089212;28;20187;-57
2021/01/17 03:51:43;;;;;;;28.07;19.77;;;;;;;;;;2080878;28;20254;-55
2021/01/17 03:52:44;;;;;;;26.93;19.67;;;;;;;;;;2080539;28;20167;-53
2021/01/17 03:53:44;;;;;;;24.93;19.20;;;;;;;;;;2080216;28;20218;-56
2021/01/17 03:54:44;;;;;;;24.27;18.37;;;;;;;;;;2074933;28;20172;-54
2021/01/17 03:55:44;;;;;;;27.07;18.83;;;;;;;;;;2083765;28;20676;-57
2021/01/17 03:56:46;;;;;;;28.63;18.60;;;;;;;;;;2083277;28;20160;-55
2021/01/17 03:57:46;;;;;;;28.80;19.87;;;;;;;;;;2082960;28;20172;-58
2021/01/17 03:58:47;;;;;;;28.10;20.40;;;;;;;;;;2090534;28;20427;-55
2021/01/17 03:59:47;;;;;;;24.73;18.67;;;;;;;;;;2091559;28;20644;-52
2021/01/17 04:00:47;;;;;;;25.97;19.63;;;;;;;;;;2091550;28;20184;-56
2021/01/17 04:01:47;;;;;;;27.90;19.30;;;;;;;;;;2091741;28;20179;-55
2021/01/17 04:02:48;;;;;;;30.80;20.37;;;;;;;;;;2087126;28;20180;-54
2021/01/17 04:03:48;;;;;;;25.73;19.07;;;;;;;;;;2083551;28;20820;-57
2021/01/17 04:04:48;;;;;;;27.37;20.80;;;;;;;;;;2083035;28;20182;-53
2021/01/17 04:05:49;;;;;;;26.73;18.67;;;;;;;;;;2082975;28;20180;-57
2021/01/17 04:06:49;;;;;;;29.77;21.40;;;;;;;;;;2083362;28;20175;-54
2021/01/17 04:07:49;;;;;;;30.43;21.57;;;;;;;;;;2085409;28;20167;-55
2021/01/17 04:08:50;;;;;;;26.00;19.67;;;;;;;;;;2079449;28;20656;-55
2021/01/17 04:09:50;;;;;;;27.47;19.77;;;;;;;;;;2074684;28;20169;-53
2021/01/17 04:10:50;;;;;;;31.90;20.07;;;;;;;;;;2090031;28;20589;-55
2021/01/17 04:11:50;;;;;;;27.23;20.23;;;;;;;;;;2090100;28;20163;-54
2021/01/17 04:12:51;;;;;;;28.27;20.60;;;;;;;;;;2083679;28;20157;-54
2021/01/17 04:13:51;;;;;;;25.17;18.60;;;;;;;;;;2091449;28;20179;-54
2021/01/17 04:14:51;;;;;;;29.70;20.60;;;;;;;;;;2082441;28;20185;-52
2021/01/17 04:15:51;;;;;;;27.67;20.07;;;;;;;;;;2082786;28;20259;-55
2021/01/17 04:16:52;;;;;;;26.97;19.60;;;;;;;;;;2074077;28;20665;-59
2021/01/17 04:17:52;;;;;;;27.47;20.70;;;;;;;;;;2073980;28;20233;-57
2021/01/17 04:18:52;;;;;;;26.77;20.20;;;;;;;;;;2091651;28;20218;-56
2021/01/17 04:19:53;;;;;;;28.10;20.13;;;;;;;;;;2091455;28;20183;-57
2021/01/17 04:20:53;;;;;;;27.90;20.10;;;;;;;;;;2091572;28;20286;-56
2021/01/17 04:21:54;;;;;;;28.33;20.13;;;;;;;;;;2085906;28;20222;-56
2021/01/17 04:23:01;;;;;;;28.80;19.77;;;;;;;;;;2083521;28;20180;-53
2021/01/17 04:24:01;;;;;;;26.43;20.57;;;;;;;;;;2083162;28;20171;-52
2021/01/17 04:25:01;;;;;;;25.83;19.17;;;;;;;;;;2083125;28;20406;-54
2021/01/17 04:26:02;;;;;;;29.77;19.57;;;;;;;;;;2083080;28;20279;-54
2021/01/17 04:27:02;;;;;;;27.40;20.00;;;;;;;;;;2082780;28;20633;-55
2021/01/17 04:28:02;;;;;;;29.83;19.90;;;;;;;;;;2082883;28;20168;-54
2021/01/17 04:29:03;;;;;;;28.57;20.70;;;;;;;;;;2083237;28;20184;-56
2021/01/17 04:30:04;;;;;;;27.13;20.30;;;;;;;;;;2083120;28;20238;-56
2021/01/17 04:31:05;;;;;;;26.00;18.87;;;;;;;;;;2091021;28;20203;-56
2021/01/17 04:32:05;;;;;;;29.10;20.07;;;;;;;;;;2082671;28;20429;-56
2021/01/17 04:33:05;;;;;;;26.33;19.77;;;;;;;;;;2082442;28;20222;-55
2021/01/17 04:34:06;;;;;;;26.77;19.70;;;;;;;;;;2091001;28;20184;-53
2021/01/17 04:35:06;;;;;;;30.93;20.97;;;;;;;;;;2091231;28;20262;-55
2021/01/17 04:36:07;;;;;;;29.90;20.63;;;;;;;;;;2091061;28;20736;-55
2021/01/17 04:37:07;;;;;;;28.70;20.83;;;;;;;;;;2090933;28;20259;-55
2021/01/17 04:38:07;;;;;;;28.17;19.97;;;;;;;;;;2088452;28;20770;-54
2021/01/17 04:39:08;;;;;;;29.43;21.63;;;;;;;;;;2087297;28;20540;-55
2021/01/17 04:40:08;;;;;;;29.83;21.60;;;;;;;;;;2088897;28;20190;-56
2021/01/17 04:41:12;;;;;;;27.23;19.70;;;;;;;;;;2089015;28;20203;-55
2021/01/17 04:42:15;;;;;;;28.23;20.00;;;;;;;;;;2086534;28;20731;-55
2021/01/17 04:43:15;;;;;;;29.00;20.23;;;;;;;;;;2084632;28;20579;-55
2021/01/17 04:44:20;;;;;;;28.97;20.63;;;;;;;;;;2085150;28;20441;-55
2021/01/17 04:45:22;;;;;;;28.97;20.40;;;;;;;;;;2079449;28;20187;-56
2021/01/17 04:46:23;;;;;;;29.93;20.53;;;;;;;;;;2081590;28;20857;-56
2021/01/17 04:47:23;;;;;;;26.37;19.17;;;;;;;;;;2084293;28;20854;-53
2021/01/17 04:48:24;;;;;;;29.33;20.97;;;;;;;;;;2071387;28;20497;-58
2021/01/17 04:49:25;;;;;;;28.63;21.30;;;;;;;;;;2074223;28;20181;-55
2021/01/17 04:50:26;;;;;;;27.93;19.93;;;;;;;;;;2082138;28;20405;-58
2021/01/17 04:51:28;;;;;;;29.30;19.90;;;;;;;;;;2083270;28;20688;-56
2021/01/17 04:52:29;;;;;;;29.90;20.43;;;;;;;;;;2083133;28;20944;-57
2021/01/17 04:53:29;;;;;;;28.67;20.07;;;;;;;;;;2083029;28;20412;-54
2021/01/17 04:54:30;;;;;;;30.90;21.60;;;;;;;;;;2073975;28;20204;-55
2021/01/17 04:55:33;;;;;;;30.07;20.83;;;;;;;;;;2074193;28;20161;-57
2021/01/17 04:56:45;;;;;;;26.80;19.33;;;;;;;;;;2074305;28;20267;-57
2021/01/17 04:57:50;;;;;;;29.03;20.17;;;;;;;;;;2075418;28;20800;-53
2021/01/17 04:59:00;;;;;;;28.90;21.60;;;;;;;;;;2091050;28;20871;-54
2021/01/17 05:00:08;;;;;;;25.73;20.87;;;;;;;;;;2091127;28;20984;-53
2021/01/17 05:01:14;;;;;;;31.27;21.83;;;;;;;;;;2091042;28;20442;-54
2021/01/17 05:02:24;;;;;;;28.53;20.20;;;;;;;;;;2091200;28;20409;-53
2021/01/17 05:03:48;;;;;;;28.00;20.23;;;;;;;;;;2077312;28;20418;-55
2021/01/17 05:05:15;;;;;;;30.23;21.50;;;;;;;;;;2077001;28;20402;-53
2021/01/17 05:06:24;;;;;;;30.27;21.57;;;;;;;;;;2082374;28;20481;-56
2021/01/17 05:07:30;;;;;;;29.10;20.80;;;;;;;;;;2090765;28;20416;-56
2021/01/17 05:08:31;;;;;;;30.03;21.57;;;;;;;;;;2085612;28;20487;-56
2021/01/17 05:09:31;;;;;;;31.83;22.00;;;;;;;;;;2083039;28;20413;-56
2021/01/17 05:10:36;;;;;;;31.43;22.17;;;;;;;;;;2083003;28;20941;-54
2021/01/17 05:11:40;;;;;;;29.10;21.60;;;;;;;;;;2084004;28;20244;-53
2021/01/17 05:13:01;;;;;;;29.83;20.87;;;;;;;;;;2083457;28;20422;-53
2021/01/17 05:14:07;;;;;;;30.97;21.33;;;;;;;;;;2063160;28;20410;-57
2021/01/17 05:15:08;;;;;;;32.67;22.67;;;;;;;;;;2074512;28;20430;-57
2021/01/17 05:16:08;;;;;;;30.80;22.47;;;;;;;;;;2073909;28;20910;-55
2021/01/17 05:17:09;;;;;;;31.57;22.50;;;;;;;;;;2073741;28;20415;-55
2021/01/17 05:18:10;;;;;;;33.73;23.23;;;;;;;;;;2073994;28;20227;-55
2021/01/17 05:19:11;;;;;;;31.43;22.57;;;;;;;;;;2074033;28;20407;-55
2021/01/17 05:20:12;;;;;;;32.10;21.63;;;;;;;;;;2074234;28;20211;-55
2021/01/17 05:21:15;;;;;;;32.87;23.07;;;;;;;;;;2085741;28;20960;-55
2021/01/17 05:22:19;;;;;;;33.27;22.47;;;;;;;;;;2090859;28;20259;-55
2021/01/17 05:23:21;;;;;;;34.43;23.50;;;;;;;;;;2090574;28;20432;-57
2021/01/17 05:24:21;;;;;;;36.30;23.63;;;;;;;;;;2090565;28;20408;-55
2021/01/17 05:25:24;;;;;;;32.67;23.90;;;;;;;;;;2091010;28;20404;-52
2021/01/17 05:26:25;;;;;;;35.43;23.63;;;;;;;;;;2084494;28;20180;-57
2021/01/17 05:27:25;;;;;;;32.53;23.60;;;;;;;;;;2073520;28;20979;-56
2021/01/17 05:28:25;;;;;;;32.37;23.10;;;;;;;;;;2073925;28;20832;-54
2021/01/17 05:29:29;;;;;;;31.30;22.00;;;;;;;;;;2084455;28;20183;-56
2021/01/17 05:30:29;;;;;;;32.03;22.40;;;;;;;;;;2085747;28;20195;-56
2021/01/17 05:31:30;;;;;;;32.40;22.97;;;;;;;;;;2099384;23;20438;-61
2021/01/17 05:32:31;;;;;;;33.30;23.83;;;;;;;;;;2081024;28;20172;-62
2021/01/17 05:33:32;;;;;;;32.77;23.63;;;;;;;;;;2095021;28;20183;-57
2021/01/17 05:34:32;;;;;;;31.47;22.97;;;;;;;;;;2103098;28;20213;-57
2021/01/17 05:35:33;;;;;;;35.17;23.67;;;;;;;;;;2097798;28;20404;-61
2021/01/17 05:36:33;;;;;;;33.10;23.43;;;;;;;;;;2092138;28;20659;-59
2021/01/17 05:37:33;;;;;;;37.27;24.30;;;;;;;;;;2095251;28;20175;-59
2021/01/17 05:38:33;;;;;;;37.10;24.03;;;;;;;;;;2088458;28;20182;-55
2021/01/17 05:39:52;;;;;;;32.23;23.47;;;;;;;;;;2088547;28;20651;-59
2021/01/17 05:40:53;;;;;;;30.97;22.93;;;;;;;;;;2094282;28;20280;-60
2021/01/17 05:41:53;;;;;;;31.17;22.40;;;;;;;;;;2076860;28;20413;-61
2021/01/17 05:42:53;;;;;;;34.47;24.13;;;;;;;;;;2079024;28;20275;-60
2021/01/17 05:43:54;;;;;;;32.13;22.57;;;;;;;;;;2088320;28;20172;-59
2021/01/17 05:44:55;;;;;;;33.13;23.77;;;;;;;;;;2083779;28;20728;-57
2021/01/17 05:45:55;;;;;;;33.90;23.83;;;;;;;;;;2081686;28;20279;-61
2021/01/17 05:47:05;;;;;;;33.60;24.30;;;;;;;;;;2080587;28;20925;-60
2021/01/17 05:48:06;;;;;;;34.20;24.57;;;;;;;;;;2087162;28;20168;-59
2021/01/17 05:49:12;;;;;;;37.63;24.80;;;;;;;;;;2082645;28;20940;-60
2021/01/17 05:50:12;;;;;;;33.50;23.83;;;;;;;;;;2080703;28;20675;-60
2021/01/17 05:51:24;;;;;;;37.07;24.93;;;;;;;;;;2080874;28;20464;-58
2021/01/17 05:52:24;;;;;;;37.17;25.27;;;;;;;;;;2084098;28;20188;-59
2021/01/17 05:53:24;;;;;;;33.83;22.77;;;;;;;;;;2082737;28;20446;-58
2021/01/17 05:54:25;;;;;;;32.93;24.03;;;;;;;;;;2078182;28;20179;-58
2021/01/17 05:55:32;;;;;;;35.80;24.03;;;;;;;;;;2081392;28;20739;-59
2021/01/17 05:56:33;;;;;;;34.40;24.63;;;;;;;;;;2078603;28;20645;-59
2021/01/17 05:57:34;;;;;;;34.33;23.93;;;;;;;;;;2080815;28;20397;-58
2021/01/17 05:58:42;;;;;;;36.30;24.80;;;;;;;;;;2088348;28;20515;-62
2021/01/17 05:59:42;;;;;;;34.40;22.47;;;;;;;;;;2073648;28;20502;-55